createdAt,value
2023-05-23T00:02:13.361Z,9.57
2023-05-23T00:04:40.547Z,10.17
2023-05-23T00:07:07.918Z,10.10
2023-05-23T00:09:37.630Z,9.67
2023-05-23T00:12:04.677Z,9.77
2023-05-23T00:14:33.987Z,9.00
2023-05-23T00:17:01.643Z,9.33
2023-05-23T00:19:28.744Z,9.73
2023-05-23T00:22:01.567Z,9.83
2023-05-23T00:24:28.511Z,9.60
2023-05-23T00:26:55.315Z,9.97
2023-05-23T00:29:22.281Z,9.33
2023-05-23T00:31:49.867Z,10.07
2023-05-23T00:34:19.982Z,9.73
2023-05-23T00:36:54.246Z,10.57
2023-05-23T00:39:21.680Z,10.80
2023-05-23T00:41:53.184Z,11.00
2023-05-23T00:44:21.575Z,10.20
2023-05-23T00:46:53.708Z,10.33
2023-05-23T00:49:21.335Z,10.80
2023-05-23T00:51:52.175Z,10.53
2023-05-23T00:54:24.424Z,11.23
2023-05-23T00:56:51.475Z,10.80
2023-05-23T00:59:18.517Z,11.27
2023-05-23T01:01:47.435Z,11.00
2023-05-23T01:04:16.862Z,11.47
2023-05-23T01:06:46.992Z,11.00
2023-05-23T01:09:18.061Z,10.50
2023-05-23T01:11:54.786Z,10.97
2023-05-23T01:14:29.123Z,12.00
2023-05-23T01:17:13.716Z,10.97
2023-05-23T01:20:00.464Z,10.03
2023-05-23T01:22:49.475Z,11.17
2023-05-23T01:25:16.307Z,11.60
2023-05-23T01:27:43.057Z,12.33
2023-05-23T01:30:11.824Z,11.40
2023-05-23T01:32:40.258Z,11.57
2023-05-23T01:35:07.972Z,11.47
2023-05-23T01:37:34.776Z,11.27
2023-05-23T01:40:02.299Z,11.83
2023-05-23T01:42:29.619Z,12.10
2023-05-23T01:44:59.346Z,11.40
2023-05-23T01:47:27.283Z,11.73
2023-05-23T01:49:55.523Z,10.60
2023-05-23T01:52:23.426Z,10.67
2023-05-23T01:54:51.398Z,9.03
2023-05-23T01:57:19.591Z,8.87
2023-05-23T01:59:47.147Z,7.90
2023-05-23T02:02:14.107Z,8.13
2023-05-23T02:04:40.933Z,8.30
2023-05-23T02:07:07.853Z,8.63
2023-05-23T02:09:34.708Z,9.13
2023-05-23T02:12:01.549Z,9.00
2023-05-23T02:14:28.569Z,8.03
2023-05-23T02:16:58.210Z,8.13
2023-05-23T02:19:25.198Z,7.53
2023-05-23T02:21:52.072Z,6.90
2023-05-23T02:24:18.965Z,6.10
2023-05-23T02:26:45.884Z,5.97
2023-05-23T02:29:12.745Z,6.13
2023-05-23T02:31:39.754Z,6.07
2023-05-23T02:34:06.686Z,5.73
2023-05-23T02:36:34.220Z,5.47
2023-05-23T02:39:01.189Z,5.33
2023-05-23T02:41:27.945Z,5.50
2023-05-23T02:43:55.116Z,5.67
2023-05-23T02:46:22.077Z,4.97
2023-05-23T02:48:49.006Z,4.93
2023-05-23T02:51:16.160Z,5.10
2023-05-23T02:53:42.991Z,4.83
2023-05-23T02:56:09.942Z,4.67
2023-05-23T02:58:37.073Z,4.47
2023-05-23T03:01:06.406Z,4.67
2023-05-23T03:03:34.828Z,4.43
2023-05-23T03:06:05.120Z,4.37
2023-05-23T03:08:32.229Z,4.13
2023-05-23T03:11:01.649Z,4.73
2023-05-23T03:13:29.288Z,3.83
2023-05-23T03:15:58.739Z,4.90
2023-05-23T03:18:25.574Z,4.93
2023-05-23T03:20:52.346Z,5.03
2023-05-23T03:23:19.305Z,5.67
2023-05-23T03:25:46.245Z,5.07
2023-05-23T03:28:13.284Z,4.73
2023-05-23T03:30:40.193Z,5.60
2023-05-23T03:33:07.548Z,6.50
2023-05-23T03:35:34.501Z,6.43
2023-05-23T03:38:01.443Z,6.40
2023-05-23T03:40:28.213Z,5.70
2023-05-23T03:43:05.566Z,6.40
2023-05-23T03:45:33.718Z,5.77
2023-05-23T03:48:01.153Z,6.33
2023-05-23T03:50:28.323Z,6.40
2023-05-23T03:52:56.410Z,6.00
2023-05-23T03:55:25.529Z,5.70
2023-05-23T03:57:52.500Z,6.17
2023-05-23T04:00:22.529Z,6.37
2023-05-23T04:02:52.021Z,5.90
2023-05-23T04:05:19.295Z,6.57
2023-05-23T04:07:46.429Z,7.20
2023-05-23T04:10:13.255Z,7.33
2023-05-23T04:12:41.804Z,7.53
2023-05-23T04:15:09.442Z,6.90
2023-05-23T04:17:38.996Z,7.03
2023-05-23T04:20:10.244Z,6.80
2023-05-23T04:22:37.244Z,7.10
2023-05-23T04:25:04.378Z,6.93
2023-05-23T04:27:31.262Z,8.53
2023-05-23T04:29:58.770Z,8.57
2023-05-23T04:32:26.234Z,9.20
2023-05-23T04:34:53.221Z,8.83
2023-05-23T04:37:26.160Z,8.57
2023-05-23T04:39:53.717Z,7.70
2023-05-23T04:42:25.010Z,8.37
2023-05-23T04:44:58.259Z,7.30
2023-05-23T04:47:28.967Z,7.43
2023-05-23T04:49:57.454Z,6.63
2023-05-23T04:52:25.502Z,6.97
2023-05-23T04:54:54.175Z,6.63
2023-05-23T04:57:22.110Z,6.80
2023-05-23T04:59:48.880Z,6.83
2023-05-23T05:02:15.892Z,6.83
2023-05-23T05:04:42.841Z,7.07
2023-05-23T05:07:09.652Z,6.10
2023-05-23T05:09:37.196Z,7.30
2023-05-23T05:12:04.108Z,6.83
2023-05-23T05:14:31.280Z,7.10
2023-05-23T05:17:02.842Z,7.43
2023-05-23T05:19:29.983Z,6.33
2023-05-23T05:22:02.383Z,6.57
2023-05-23T05:24:29.861Z,6.93
2023-05-23T05:26:56.888Z,5.77
2023-05-23T05:29:24.006Z,5.03
2023-05-23T05:31:52.124Z,5.33
2023-05-23T05:34:19.045Z,6.10
2023-05-23T05:36:48.112Z,5.30
2023-05-23T05:39:15.183Z,5.70
2023-05-23T05:41:42.229Z,5.60
2023-05-23T05:44:09.883Z,5.07
2023-05-23T05:46:36.730Z,4.83
2023-05-23T05:49:03.597Z,4.67
2023-05-23T05:51:31.596Z,4.43
2023-05-23T05:53:58.832Z,4.87
2023-05-23T05:56:28.894Z,4.43
2023-05-23T05:58:55.678Z,4.73
2023-05-23T06:01:26.864Z,4.77
2023-05-23T06:03:56.832Z,3.87
2023-05-23T06:06:26.838Z,4.80
2023-05-23T06:08:53.673Z,5.17
2023-05-23T06:11:20.483Z,6.30
2023-05-23T06:13:47.323Z,4.63
2023-05-23T06:16:15.380Z,4.73
2023-05-23T06:18:42.317Z,5.10
2023-05-23T06:21:10.019Z,4.17
2023-05-23T06:23:36.861Z,4.20
2023-05-23T06:26:04.058Z,4.97
2023-05-23T06:28:30.950Z,4.90
2023-05-23T06:30:57.714Z,4.53
2023-05-23T06:33:24.478Z,4.67
2023-05-23T06:35:51.350Z,4.80
2023-05-23T06:38:18.198Z,5.13
2023-05-23T06:40:45.376Z,4.23
2023-05-23T06:43:12.139Z,4.67
2023-05-23T06:45:39.024Z,4.40
2023-05-23T06:48:06.265Z,4.30
2023-05-23T06:50:33.143Z,4.80
2023-05-23T06:52:59.910Z,4.83
2023-05-23T06:55:28.292Z,5.00
2023-05-23T06:57:55.218Z,4.43
2023-05-23T07:00:22.154Z,4.40
2023-05-23T07:02:48.980Z,5.00
2023-05-23T07:05:16.457Z,4.37
2023-05-23T07:07:43.835Z,5.03
2023-05-23T07:10:10.950Z,4.30
2023-05-23T07:12:40.586Z,4.83
2023-05-23T07:15:07.984Z,4.10
2023-05-23T07:17:36.444Z,3.63
2023-05-23T07:20:04.667Z,4.77
2023-05-23T07:22:34.232Z,4.90
2023-05-23T07:25:01.215Z,4.77
2023-05-23T07:27:28.875Z,4.23
2023-05-23T07:29:57.504Z,4.23
2023-05-23T07:32:24.339Z,4.43
2023-05-23T07:34:54.304Z,5.07
2023-05-23T07:37:21.094Z,5.10
2023-05-23T07:39:47.914Z,4.97
2023-05-23T07:42:14.865Z,4.93
2023-05-23T07:44:44.219Z,4.50
2023-05-23T07:47:11.139Z,4.70
2023-05-23T07:49:43.127Z,4.67
2023-05-23T07:52:10.021Z,5.23
2023-05-23T07:54:36.852Z,4.97
2023-05-23T07:57:03.968Z,4.77
2023-05-23T07:59:30.728Z,4.87
2023-05-23T08:01:57.519Z,5.13
2023-05-23T08:04:24.944Z,4.77
2023-05-23T08:07:03.629Z,4.50
2023-05-23T08:09:34.498Z,4.37
2023-05-23T08:12:01.495Z,4.10
2023-05-23T08:14:38.603Z,4.43
2023-05-23T08:17:15.748Z,4.40
2023-05-23T08:19:42.714Z,3.90
2023-05-23T08:22:09.583Z,4.00
2023-05-23T08:24:36.499Z,3.20
2023-05-23T08:27:03.382Z,3.43
2023-05-23T08:29:30.249Z,2.87
2023-05-23T08:31:57.594Z,3.53
2023-05-23T08:34:24.613Z,3.37
2023-05-23T08:36:52.638Z,2.80
2023-05-23T08:39:19.455Z,2.77
2023-05-23T08:41:54.072Z,2.50
2023-05-23T08:44:20.925Z,2.50
2023-05-23T08:46:49.922Z,3.00
2023-05-23T08:49:18.493Z,2.57
2023-05-23T08:51:47.094Z,2.33
2023-05-23T08:54:17.036Z,2.17
2023-05-23T08:56:44.148Z,2.57
2023-05-23T08:59:13.033Z,2.00
2023-05-23T09:01:41.416Z,2.37
2023-05-23T09:04:08.763Z,2.40
2023-05-23T09:06:35.666Z,2.33
2023-05-23T09:09:03.068Z,2.33
2023-05-23T09:11:30.176Z,2.17
2023-05-23T09:13:57.883Z,2.13
2023-05-23T09:16:31.870Z,1.90
2023-05-23T09:18:59.013Z,2.30
2023-05-23T09:21:28.131Z,2.50
2023-05-23T09:23:55.870Z,2.17
2023-05-23T09:26:22.927Z,2.00
2023-05-23T09:28:49.881Z,2.20
2023-05-23T09:31:16.825Z,2.27
2023-05-23T09:33:47.383Z,2.60
2023-05-23T09:36:14.446Z,2.67
2023-05-23T09:38:42.785Z,2.40
2023-05-23T09:41:13.455Z,2.90
2023-05-23T09:43:49.710Z,2.27
2023-05-23T09:46:16.621Z,2.40
2023-05-23T09:48:51.833Z,1.90
2023-05-23T09:51:23.065Z,1.83
2023-05-23T09:53:52.230Z,2.43
2023-05-23T09:56:22.339Z,2.63
2023-05-23T09:58:50.678Z,2.20
2023-05-23T10:01:18.275Z,2.50
2023-05-23T10:03:50.544Z,2.73
2023-05-23T10:06:45.230Z,2.40
2023-05-23T10:09:19.097Z,2.50
2023-05-23T10:12:13.984Z,2.13
2023-05-23T10:14:48.685Z,2.10
2023-05-23T10:17:41.746Z,2.40
2023-05-23T10:20:15.005Z,2.30
2023-05-23T10:22:43.065Z,2.53
2023-05-23T10:25:10.523Z,2.30
2023-05-23T10:27:41.256Z,2.30
2023-05-23T10:30:09.273Z,2.93
2023-05-23T10:32:38.905Z,2.63
2023-05-23T10:35:32.337Z,2.73
2023-05-23T10:38:13.932Z,2.43
2023-05-23T10:41:04.076Z,2.20
2023-05-23T10:43:52.903Z,2.10
2023-05-23T10:46:22.957Z,2.43
2023-05-23T10:48:57.344Z,3.00
2023-05-23T10:51:25.025Z,2.47
2023-05-23T10:53:54.738Z,2.83
2023-05-23T10:56:24.005Z,2.43
2023-05-23T10:58:57.980Z,2.33
2023-05-23T11:01:25.530Z,2.30
2023-05-23T11:03:55.655Z,2.23
2023-05-23T11:06:32.956Z,2.00
2023-05-23T11:09:09.656Z,2.13
2023-05-23T11:12:06.642Z,2.10
2023-05-23T11:14:34.662Z,1.83
2023-05-23T11:17:17.147Z,1.90
2023-05-23T11:20:07.261Z,2.67
2023-05-23T11:22:34.964Z,2.17
2023-05-23T11:25:08.408Z,2.33
2023-05-23T11:27:38.511Z,2.10
2023-05-23T11:30:16.683Z,2.10
2023-05-23T11:32:54.464Z,2.03
2023-05-23T11:35:21.708Z,2.13
2023-05-23T11:37:49.047Z,2.50
2023-05-23T11:40:35.933Z,2.47
2023-05-23T11:43:05.256Z,1.80
2023-05-23T11:45:33.907Z,2.10
2023-05-23T11:48:14.872Z,2.00
2023-05-23T11:50:46.074Z,1.77
2023-05-23T11:53:14.045Z,2.30
2023-05-23T11:55:48.477Z,1.83
2023-05-23T11:58:15.436Z,2.50
2023-05-23T12:00:46.266Z,2.07
2023-05-23T12:03:13.488Z,2.03
2023-05-23T12:05:43.876Z,1.90
2023-05-23T12:08:15.995Z,1.87
2023-05-23T12:10:56.076Z,2.10
2023-05-23T12:13:31.168Z,1.73
2023-05-23T12:16:02.708Z,2.17
2023-05-23T12:18:31.563Z,2.10
2023-05-23T12:21:06.658Z,2.30
2023-05-23T12:23:35.202Z,2.37
2023-05-23T12:26:08.803Z,2.40
2023-05-23T12:28:45.045Z,1.93
2023-05-23T12:31:19.009Z,1.90
2023-05-23T12:33:48.095Z,1.63
2023-05-23T12:36:21.805Z,2.10
2023-05-23T12:38:49.293Z,1.70
2023-05-23T12:41:19.937Z,2.33
2023-05-23T12:43:52.384Z,1.60
2023-05-23T12:46:20.605Z,1.80
2023-05-23T12:48:47.584Z,2.17
2023-05-23T12:51:15.214Z,1.83
2023-05-23T12:53:44.473Z,2.27
2023-05-23T12:56:11.568Z,2.43
2023-05-23T12:58:41.414Z,1.83
2023-05-23T13:01:08.369Z,1.97
2023-05-23T13:03:35.323Z,2.23
2023-05-23T13:06:05.301Z,2.67
2023-05-23T13:08:32.222Z,1.73
2023-05-23T13:10:59.144Z,2.20
2023-05-23T13:13:26.922Z,2.00
2023-05-23T13:15:53.770Z,2.50
2023-05-23T13:18:20.970Z,1.60
2023-05-23T13:20:47.914Z,1.57
2023-05-23T13:23:14.831Z,1.70
2023-05-23T13:25:44.761Z,2.10
2023-05-23T13:28:11.756Z,1.60
2023-05-23T13:30:38.816Z,1.93
2023-05-23T13:33:05.851Z,1.70
2023-05-23T13:35:32.716Z,1.77
2023-05-23T13:37:59.728Z,1.93
2023-05-23T13:40:26.684Z,1.97
2023-05-23T13:42:53.687Z,1.70
2023-05-23T13:45:22.734Z,2.03
2023-05-23T13:47:49.893Z,2.00
2023-05-23T13:50:17.287Z,1.50
2023-05-23T13:52:49.107Z,1.90
2023-05-23T13:55:17.401Z,2.30
2023-05-23T13:57:45.243Z,2.00
2023-05-23T14:00:12.701Z,1.93
2023-05-23T14:02:39.617Z,2.47
2023-05-23T14:05:08.221Z,2.20
2023-05-23T14:07:35.535Z,2.20
2023-05-23T14:10:02.453Z,1.80
2023-05-23T14:12:29.863Z,1.93
2023-05-23T14:14:56.742Z,2.27
2023-05-23T14:17:23.996Z,2.37
2023-05-23T14:19:51.202Z,2.13
2023-05-23T14:22:18.103Z,1.87
2023-05-23T14:24:47.796Z,1.60
2023-05-23T14:27:18.535Z,1.80
2023-05-23T14:29:46.852Z,2.07
2023-05-23T14:32:14.106Z,2.07
2023-05-23T14:34:41.600Z,2.03
2023-05-23T14:37:08.461Z,1.77
2023-05-23T14:39:36.098Z,1.63
2023-05-23T14:42:03.169Z,1.93
2023-05-23T14:44:30.235Z,2.00
2023-05-23T14:46:57.027Z,1.90
2023-05-23T14:49:23.915Z,2.10
2023-05-23T14:51:51.410Z,1.63
2023-05-23T14:54:19.113Z,2.07
2023-05-23T14:56:46.178Z,1.80
2023-05-23T14:59:13.130Z,2.30
2023-05-23T15:01:40.939Z,1.80
2023-05-23T15:04:09.426Z,1.53
2023-05-23T15:06:38.208Z,2.30
2023-05-23T15:09:05.294Z,2.27
2023-05-23T15:11:33.160Z,1.87
2023-05-23T15:14:00.158Z,2.40
2023-05-23T15:16:27.230Z,1.67
2023-05-23T15:18:54.319Z,1.90
2023-05-23T15:21:21.337Z,2.00
2023-05-23T15:23:48.256Z,1.70
2023-05-23T15:26:15.221Z,1.93
2023-05-23T15:28:42.032Z,2.50
2023-05-23T15:31:08.818Z,1.83
2023-05-23T15:33:35.768Z,2.33
2023-05-23T15:36:02.710Z,1.50
2023-05-23T15:38:29.459Z,2.10
2023-05-23T15:40:56.841Z,2.00
2023-05-23T15:43:25.133Z,1.63
2023-05-23T15:45:52.491Z,2.00
2023-05-23T15:48:19.843Z,1.70
2023-05-23T15:50:46.722Z,2.03
2023-05-23T15:53:13.518Z,1.73
2023-05-23T15:55:42.413Z,1.67
2023-05-23T15:58:10.560Z,2.20
2023-05-23T16:00:37.619Z,2.60
2023-05-23T16:03:04.891Z,1.63
2023-05-23T16:05:31.747Z,1.93
2023-05-23T16:07:58.583Z,1.73
2023-05-23T16:10:25.704Z,2.23
2023-05-23T16:12:52.814Z,1.73
2023-05-23T16:15:19.625Z,2.23
2023-05-23T16:17:46.585Z,1.77
2023-05-23T16:20:13.489Z,2.37
2023-05-23T16:22:41.517Z,2.17
2023-05-23T16:25:10.616Z,2.40
2023-05-23T16:27:37.819Z,1.80
2023-05-23T16:30:06.288Z,1.87
2023-05-23T16:32:34.338Z,1.90
2023-05-23T16:35:01.549Z,1.73
2023-05-23T16:37:31.131Z,1.67
2023-05-23T16:39:58.075Z,1.67
2023-05-23T16:42:24.942Z,1.90
2023-05-23T16:44:51.746Z,2.30
2023-05-23T16:47:18.975Z,1.87
2023-05-23T16:49:45.877Z,1.97
2023-05-23T16:52:12.750Z,1.13
2023-05-23T16:54:39.707Z,1.70
2023-05-23T16:57:06.816Z,1.60
2023-05-23T16:59:33.885Z,1.47
2023-05-23T17:02:00.795Z,1.50
2023-05-23T17:04:27.710Z,1.80
2023-05-23T17:06:54.597Z,1.43
2023-05-23T17:09:22.872Z,1.00
2023-05-23T17:11:50.125Z,1.60
2023-05-23T17:14:17.493Z,1.50
2023-05-23T17:16:44.406Z,2.00
2023-05-23T17:19:11.247Z,1.70
2023-05-23T17:21:38.185Z,1.20
2023-05-23T17:24:05.275Z,2.10
2023-05-23T17:26:32.140Z,2.10
2023-05-23T17:28:58.967Z,1.60
2023-05-23T17:31:26.261Z,1.60
2023-05-23T17:33:54.098Z,1.53
2023-05-23T17:36:21.092Z,1.23
2023-05-23T17:38:47.932Z,1.57
2023-05-23T17:41:15.449Z,1.53
2023-05-23T17:43:43.035Z,1.47
2023-05-23T17:46:10.007Z,1.43
2023-05-23T17:48:47.097Z,1.30
2023-05-23T17:51:15.730Z,1.60
2023-05-23T17:53:42.940Z,1.80
2023-05-23T17:56:12.940Z,1.57
2023-05-23T17:58:41.064Z,2.63
2023-05-23T18:01:09.412Z,2.20
2023-05-23T18:03:38.662Z,1.67
2023-05-23T18:06:05.795Z,1.70
2023-05-23T18:08:32.545Z,2.13
2023-05-23T18:10:59.387Z,1.60
2023-05-23T18:13:26.487Z,1.57
2023-05-23T18:15:53.191Z,1.40
2023-05-23T18:18:20.072Z,1.80
2023-05-23T18:20:47.270Z,1.80
2023-05-23T18:23:14.141Z,2.03
2023-05-23T18:25:41.115Z,1.83
2023-05-23T18:28:08.152Z,1.70
2023-05-23T18:30:35.032Z,1.50
2023-05-23T18:33:02.070Z,1.60
2023-05-23T18:35:29.751Z,2.30
2023-05-23T18:37:56.779Z,1.50
2023-05-23T18:40:27.177Z,1.87
2023-05-23T18:42:56.950Z,1.67
2023-05-23T18:45:23.814Z,1.53
2023-05-23T18:47:50.799Z,1.90
2023-05-23T18:50:18.704Z,1.60
2023-05-23T18:52:48.748Z,1.67
2023-05-23T18:55:16.555Z,1.33
2023-05-23T18:57:46.475Z,1.33
2023-05-23T19:00:17.571Z,1.47
2023-05-23T19:02:48.353Z,1.60
2023-05-23T19:05:15.791Z,2.33
2023-05-23T19:07:42.721Z,1.90
2023-05-23T19:10:09.940Z,1.63
2023-05-23T19:12:39.484Z,1.90
2023-05-23T19:15:10.682Z,1.40
2023-05-23T19:17:41.789Z,1.67
2023-05-23T19:20:19.958Z,1.57
2023-05-23T19:22:51.474Z,1.60
2023-05-23T19:25:20.209Z,1.30
2023-05-23T19:27:47.159Z,1.40
2023-05-23T19:30:14.170Z,1.50
2023-05-23T19:32:41.242Z,1.40
2023-05-23T19:35:08.493Z,1.70
2023-05-23T19:37:38.772Z,1.60
2023-05-23T19:40:06.241Z,1.30
2023-05-23T19:42:33.080Z,2.00
2023-05-23T19:44:59.838Z,1.57
2023-05-23T19:47:28.544Z,1.60
2023-05-23T19:49:57.101Z,1.30
2023-05-23T19:52:24.017Z,1.27
2023-05-23T19:54:50.772Z,1.43
2023-05-23T19:57:19.951Z,1.50
2023-05-23T19:59:46.855Z,1.53
2023-05-23T20:02:13.642Z,1.70
2023-05-23T20:04:40.933Z,1.60
2023-05-23T20:07:07.699Z,1.63
2023-05-23T20:09:34.483Z,1.77
2023-05-23T20:12:01.450Z,1.57
2023-05-23T20:14:30.023Z,1.57
2023-05-23T20:16:56.860Z,1.57
2023-05-23T20:19:23.835Z,1.23
2023-05-23T20:21:50.700Z,1.67
2023-05-23T20:24:18.760Z,1.63
2023-05-23T20:26:46.707Z,1.27
2023-05-23T20:29:13.526Z,2.03
2023-05-23T20:31:40.337Z,1.83
2023-05-23T20:34:07.213Z,1.90
2023-05-23T20:36:34.282Z,1.60
2023-05-23T20:39:01.601Z,1.50
2023-05-23T20:41:29.693Z,1.83
2023-05-23T20:43:56.644Z,1.57
2023-05-23T20:46:23.557Z,1.40
2023-05-23T20:48:50.718Z,1.47
2023-05-23T20:51:17.856Z,1.77
2023-05-23T20:53:44.806Z,1.30
2023-05-23T20:56:13.902Z,1.53
2023-05-23T20:58:43.009Z,1.50
2023-05-23T21:01:09.851Z,1.63
2023-05-23T21:03:36.961Z,1.60
2023-05-23T21:06:03.880Z,1.57
2023-05-23T21:08:32.353Z,1.47
2023-05-23T21:11:00.579Z,2.37
2023-05-23T21:13:27.696Z,1.70
2023-05-23T21:15:54.606Z,2.63
2023-05-23T21:18:22.456Z,1.60
2023-05-23T21:20:50.638Z,1.40
2023-05-23T21:23:17.386Z,1.73
2023-05-23T21:25:44.221Z,1.83
2023-05-23T21:28:11.246Z,1.73
2023-05-23T21:30:38.649Z,1.57
2023-05-23T21:33:06.007Z,1.63
2023-05-23T21:35:32.889Z,2.10
2023-05-23T21:37:59.861Z,1.80
2023-05-23T21:40:27.835Z,1.90
2023-05-23T21:42:54.633Z,1.90
2023-05-23T21:45:21.618Z,1.50
2023-05-23T21:47:48.598Z,1.67
2023-05-23T21:50:15.378Z,1.70
2023-05-23T21:52:42.262Z,2.00
2023-05-23T21:55:09.090Z,1.70
2023-05-23T21:57:36.026Z,2.03
2023-05-23T22:00:04.686Z,2.00
2023-05-23T22:02:33.177Z,1.97
2023-05-23T22:05:00.161Z,1.60
2023-05-23T22:07:27.396Z,1.97
2023-05-23T22:09:56.230Z,2.07
2023-05-23T22:12:23.124Z,2.00
2023-05-23T22:14:50.067Z,2.10
2023-05-23T22:17:17.870Z,1.53
2023-05-23T22:19:51.971Z,1.80
2023-05-23T22:22:19.390Z,1.73
2023-05-23T22:24:46.338Z,1.97
2023-05-23T22:27:13.193Z,1.50
2023-05-23T22:29:40.030Z,1.80
2023-05-23T22:32:07.083Z,1.90
2023-05-23T22:34:34.270Z,1.50
2023-05-23T22:37:02.436Z,2.00
2023-05-23T22:39:37.959Z,2.27
2023-05-23T22:42:05.259Z,1.73
2023-05-23T22:44:32.232Z,1.73
2023-05-23T22:47:00.113Z,1.97
2023-05-23T22:49:30.219Z,2.10
2023-05-23T22:51:57.818Z,1.80
2023-05-23T22:54:24.844Z,1.80
2023-05-23T22:56:51.774Z,1.70
2023-05-23T22:59:18.622Z,2.10
2023-05-23T23:01:46.450Z,1.87
2023-05-23T23:04:13.433Z,2.20
2023-05-23T23:06:43.137Z,2.00
2023-05-23T23:09:10.090Z,3.13
2023-05-23T23:11:36.990Z,2.00
2023-05-23T23:14:09.902Z,2.37
2023-05-23T23:16:38.011Z,2.10
2023-05-23T23:19:05.635Z,2.27
2023-05-23T23:21:33.019Z,2.10
2023-05-23T23:23:59.930Z,2.30
2023-05-23T23:26:29.839Z,2.47
2023-05-23T23:28:56.595Z,2.40
2023-05-23T23:31:23.503Z,2.00
2023-05-23T23:33:50.312Z,2.60
2023-05-23T23:36:17.107Z,2.00
2023-05-23T23:38:44.092Z,2.13
2023-05-23T23:41:11.022Z,2.40
2023-05-23T23:43:37.843Z,2.40
2023-05-23T23:46:04.776Z,2.30
2023-05-23T23:48:34.532Z,2.80
2023-05-23T23:51:01.636Z,2.40
2023-05-23T23:53:30.382Z,2.07
2023-05-23T23:55:57.105Z,2.20
2023-05-23T23:58:23.909Z,2.23
